sensor_id;sensor_type;location;lat;lon;timestamp;P1;durP1;ratioP1;P2;durP2;ratioP2
9459;SDS011;4768;42.664;23.240;2023-03-15T00:02:11;13.10;;;8.07;;
9459;SDS011;4768;42.664;23.240;2023-03-15T00:04:39;11.57;;;6.83;;
9459;SDS011;4768;42.664;23.240;2023-03-15T00:07:06;9.57;;;6.87;;
9459;SDS011;4768;42.664;23.240;2023-03-15T00:09:33;9.20;;;6.40;;
9459;SDS011;4768;42.664;23.240;2023-03-15T00:12:00;12.83;;;6.77;;
9459;SDS011;4768;42.664;23.240;2023-03-15T00:14:26;10.03;;;6.80;;
9459;SDS011;4768;42.664;23.240;2023-03-15T00:16:53;11.47;;;7.37;;
9459;SDS011;4768;42.664;23.240;2023-03-15T00:19:20;12.67;;;7.53;;
9459;SDS011;4768;42.664;23.240;2023-03-15T00:21:48;11.57;;;7.50;;
9459;SDS011;4768;42.664;23.240;2023-03-15T00:24:15;11.00;;;7.37;;
9459;SDS011;4768;42.664;23.240;2023-03-15T00:26:41;14.60;;;7.47;;
9459;SDS011;4768;42.664;23.240;2023-03-15T00:29:08;10.40;;;7.60;;
9459;SDS011;4768;42.664;23.240;2023-03-15T00:31:35;9.50;;;7.33;;
9459;SDS011;4768;42.664;23.240;2023-03-15T00:34:01;12.30;;;7.63;;
9459;SDS011;4768;42.664;23.240;2023-03-15T00:36:28;11.30;;;7.30;;
9459;SDS011;4768;42.664;23.240;2023-03-15T00:38:56;14.87;;;7.97;;
9459;SDS011;4768;42.664;23.240;2023-03-15T00:41:23;14.57;;;8.07;;
9459;SDS011;4768;42.664;23.240;2023-03-15T00:43:50;14.70;;;8.40;;
9459;SDS011;4768;42.664;23.240;2023-03-15T00:46:17;16.03;;;7.87;;
9459;SDS011;4768;42.664;23.240;2023-03-15T00:48:46;13.87;;;7.93;;
9459;SDS011;4768;42.664;23.240;2023-03-15T00:51:14;13.03;;;7.57;;
9459;SDS011;4768;42.664;23.240;2023-03-15T00:53:43;11.77;;;8.00;;
9459;SDS011;4768;42.664;23.240;2023-03-15T00:56:12;15.50;;;8.00;;
9459;SDS011;4768;42.664;23.240;2023-03-15T00:58:41;12.97;;;8.13;;
9459;SDS011;4768;42.664;23.240;2023-03-15T01:01:08;33.50;;;23.03;;
9459;SDS011;4768;42.664;23.240;2023-03-15T01:03:36;23.57;;;14.17;;
9459;SDS011;4768;42.664;23.240;2023-03-15T01:06:04;13.07;;;8.30;;
9459;SDS011;4768;42.664;23.240;2023-03-15T01:08:31;11.77;;;8.43;;
9459;SDS011;4768;42.664;23.240;2023-03-15T01:11:00;11.90;;;7.67;;
9459;SDS011;4768;42.664;23.240;2023-03-15T01:13:29;25.67;;;17.03;;
9459;SDS011;4768;42.664;23.240;2023-03-15T01:15:56;16.17;;;9.23;;
9459;SDS011;4768;42.664;23.240;2023-03-15T01:18:23;19.00;;;11.33;;
9459;SDS011;4768;42.664;23.240;2023-03-15T01:20:50;12.80;;;8.37;;
9459;SDS011;4768;42.664;23.240;2023-03-15T01:23:16;10.47;;;8.17;;
9459;SDS011;4768;42.664;23.240;2023-03-15T01:25:43;27.80;;;21.03;;
9459;SDS011;4768;42.664;23.240;2023-03-15T01:28:10;13.93;;;8.70;;
9459;SDS011;4768;42.664;23.240;2023-03-15T01:30:38;12.90;;;8.47;;
9459;SDS011;4768;42.664;23.240;2023-03-15T01:33:05;14.40;;;7.90;;
9459;SDS011;4768;42.664;23.240;2023-03-15T01:35:32;13.73;;;7.80;;
9459;SDS011;4768;42.664;23.240;2023-03-15T01:37:59;12.00;;;7.53;;
9459;SDS011;4768;42.664;23.240;2023-03-15T01:40:25;12.73;;;8.00;;
9459;SDS011;4768;42.664;23.240;2023-03-15T01:42:53;10.57;;;7.10;;
9459;SDS011;4768;42.664;23.240;2023-03-15T01:48:33;14.00;;;8.27;;
9459;SDS011;4768;42.664;23.240;2023-03-15T01:51:03;11.40;;;7.57;;
9459;SDS011;4768;42.664;23.240;2023-03-15T01:53:35;16.77;;;7.50;;
9459;SDS011;4768;42.664;23.240;2023-03-15T01:56:04;12.13;;;7.33;;
9459;SDS011;4768;42.664;23.240;2023-03-15T01:58:31;18.13;;;8.00;;
9459;SDS011;4768;42.664;23.240;2023-03-15T02:01:00;11.37;;;7.17;;
9459;SDS011;4768;42.664;23.240;2023-03-15T02:03:29;45.60;;;22.93;;
9459;SDS011;4768;42.664;23.240;2023-03-15T02:06:01;29.23;;;16.63;;
9459;SDS011;4768;42.664;23.240;2023-03-15T02:08:34;32.93;;;19.37;;
9459;SDS011;4768;42.664;23.240;2023-03-15T02:11:04;20.27;;;12.90;;
9459;SDS011;4768;42.664;23.240;2023-03-15T02:13:32;18.07;;;10.70;;
9459;SDS011;4768;42.664;23.240;2023-03-15T02:16:00;19.90;;;11.30;;
9459;SDS011;4768;42.664;23.240;2023-03-15T02:18:31;11.47;;;7.10;;
9459;SDS011;4768;42.664;23.240;2023-03-15T02:21:01;11.63;;;7.57;;
9459;SDS011;4768;42.664;23.240;2023-03-15T02:23:38;10.57;;;7.57;;
9459;SDS011;4768;42.664;23.240;2023-03-15T02:26:08;9.93;;;6.77;;
9459;SDS011;4768;42.664;23.240;2023-03-15T02:28:43;9.97;;;6.87;;
9459;SDS011;4768;42.664;23.240;2023-03-15T02:31:11;11.03;;;6.57;;
9459;SDS011;4768;42.664;23.240;2023-03-15T02:33:39;12.10;;;7.37;;
9459;SDS011;4768;42.664;23.240;2023-03-15T02:36:10;14.23;;;6.93;;
9459;SDS011;4768;42.664;23.240;2023-03-15T02:38:42;9.50;;;6.67;;
9459;SDS011;4768;42.664;23.240;2023-03-15T02:41:09;13.70;;;7.07;;
9459;SDS011;4768;42.664;23.240;2023-03-15T02:43:36;13.37;;;7.57;;
9459;SDS011;4768;42.664;23.240;2023-03-15T02:46:06;10.50;;;5.87;;
9459;SDS011;4768;42.664;23.240;2023-03-15T02:48:34;11.20;;;6.37;;
9459;SDS011;4768;42.664;23.240;2023-03-15T02:51:02;12.20;;;6.67;;
9459;SDS011;4768;42.664;23.240;2023-03-15T02:53:29;11.10;;;7.63;;
9459;SDS011;4768;42.664;23.240;2023-03-15T02:55:56;14.77;;;8.23;;
9459;SDS011;4768;42.664;23.240;2023-03-15T02:58:24;14.40;;;8.90;;
9459;SDS011;4768;42.664;23.240;2023-03-15T03:00:51;12.00;;;7.40;;
9459;SDS011;4768;42.664;23.240;2023-03-15T03:03:19;12.87;;;7.40;;
9459;SDS011;4768;42.664;23.240;2023-03-15T03:05:46;17.00;;;9.83;;
9459;SDS011;4768;42.664;23.240;2023-03-15T03:08:13;12.70;;;8.10;;
9459;SDS011;4768;42.664;23.240;2023-03-15T03:10:40;13.13;;;8.20;;
9459;SDS011;4768;42.664;23.240;2023-03-15T03:13:07;17.23;;;8.80;;
9459;SDS011;4768;42.664;23.240;2023-03-15T03:15:34;12.97;;;7.87;;
9459;SDS011;4768;42.664;23.240;2023-03-15T03:18:01;15.97;;;8.30;;
9459;SDS011;4768;42.664;23.240;2023-03-15T03:20:29;13.63;;;9.10;;
9459;SDS011;4768;42.664;23.240;2023-03-15T03:22:56;16.33;;;7.83;;
9459;SDS011;4768;42.664;23.240;2023-03-15T03:25:22;16.60;;;9.07;;
9459;SDS011;4768;42.664;23.240;2023-03-15T03:27:51;14.27;;;7.97;;
9459;SDS011;4768;42.664;23.240;2023-03-15T03:30:21;11.70;;;8.10;;
9459;SDS011;4768;42.664;23.240;2023-03-15T03:32:48;12.13;;;8.20;;
9459;SDS011;4768;42.664;23.240;2023-03-15T03:35:15;12.87;;;8.33;;
9459;SDS011;4768;42.664;23.240;2023-03-15T03:37:43;18.20;;;8.67;;
9459;SDS011;4768;42.664;23.240;2023-03-15T03:40:10;14.50;;;9.47;;
9459;SDS011;4768;42.664;23.240;2023-03-15T03:42:38;12.20;;;8.30;;
9459;SDS011;4768;42.664;23.240;2023-03-15T03:45:05;14.27;;;8.70;;
9459;SDS011;4768;42.664;23.240;2023-03-15T03:47:33;12.57;;;8.37;;
9459;SDS011;4768;42.664;23.240;2023-03-15T03:49:59;14.63;;;8.20;;
9459;SDS011;4768;42.664;23.240;2023-03-15T03:52:26;16.30;;;8.90;;
9459;SDS011;4768;42.664;23.240;2023-03-15T03:54:54;12.10;;;8.40;;
9459;SDS011;4768;42.664;23.240;2023-03-15T03:57:21;14.93;;;9.40;;
9459;SDS011;4768;42.664;23.240;2023-03-15T03:59:48;12.17;;;8.83;;
9459;SDS011;4768;42.664;23.240;2023-03-15T04:02:14;19.77;;;9.33;;
9459;SDS011;4768;42.664;23.240;2023-03-15T04:04:41;13.67;;;9.40;;
9459;SDS011;4768;42.664;23.240;2023-03-15T04:07:08;16.10;;;9.33;;
9459;SDS011;4768;42.664;23.240;2023-03-15T04:09:35;13.90;;;9.30;;
9459;SDS011;4768;42.664;23.240;2023-03-15T04:12:04;13.87;;;9.87;;
9459;SDS011;4768;42.664;23.240;2023-03-15T04:14:31;15.60;;;9.53;;
9459;SDS011;4768;42.664;23.240;2023-03-15T04:16:58;13.63;;;9.80;;
9459;SDS011;4768;42.664;23.240;2023-03-15T04:19:27;16.73;;;10.33;;
9459;SDS011;4768;42.664;23.240;2023-03-15T04:21:54;16.30;;;9.77;;
9459;SDS011;4768;42.664;23.240;2023-03-15T04:24:21;14.37;;;9.73;;
9459;SDS011;4768;42.664;23.240;2023-03-15T04:26:48;14.67;;;9.60;;
9459;SDS011;4768;42.664;23.240;2023-03-15T04:29:16;14.43;;;10.00;;
9459;SDS011;4768;42.664;23.240;2023-03-15T04:31:43;15.27;;;9.93;;
9459;SDS011;4768;42.664;23.240;2023-03-15T04:34:09;14.87;;;9.87;;
9459;SDS011;4768;42.664;23.240;2023-03-15T04:36:37;18.30;;;10.30;;
9459;SDS011;4768;42.664;23.240;2023-03-15T04:39:04;14.17;;;9.40;;
9459;SDS011;4768;42.664;23.240;2023-03-15T04:41:31;16.17;;;10.33;;
9459;SDS011;4768;42.664;23.240;2023-03-15T04:43:59;14.43;;;9.57;;
9459;SDS011;4768;42.664;23.240;2023-03-15T04:46:29;16.80;;;9.43;;
9459;SDS011;4768;42.664;23.240;2023-03-15T04:48:56;13.03;;;8.83;;
9459;SDS011;4768;42.664;23.240;2023-03-15T04:51:22;17.57;;;9.40;;
9459;SDS011;4768;42.664;23.240;2023-03-15T04:53:49;18.37;;;10.07;;
9459;SDS011;4768;42.664;23.240;2023-03-15T04:56:16;13.43;;;9.17;;
9459;SDS011;4768;42.664;23.240;2023-03-15T04:58:42;20.03;;;10.07;;
9459;SDS011;4768;42.664;23.240;2023-03-15T05:01:09;15.67;;;9.70;;
9459;SDS011;4768;42.664;23.240;2023-03-15T05:03:39;17.70;;;10.63;;
9459;SDS011;4768;42.664;23.240;2023-03-15T05:06:07;19.70;;;11.63;;
9459;SDS011;4768;42.664;23.240;2023-03-15T05:08:33;18.87;;;11.53;;
9459;SDS011;4768;42.664;23.240;2023-03-15T05:11:00;23.67;;;12.03;;
9459;SDS011;4768;42.664;23.240;2023-03-15T05:13:28;20.37;;;11.30;;
9459;SDS011;4768;42.664;23.240;2023-03-15T05:15:54;18.13;;;10.83;;
9459;SDS011;4768;42.664;23.240;2023-03-15T05:18:21;16.00;;;9.63;;
9459;SDS011;4768;42.664;23.240;2023-03-15T05:20:49;21.13;;;12.63;;
9459;SDS011;4768;42.664;23.240;2023-03-15T05:23:16;25.40;;;16.03;;
9459;SDS011;4768;42.664;23.240;2023-03-15T05:25:43;20.33;;;13.03;;
9459;SDS011;4768;42.664;23.240;2023-03-15T05:28:18;26.33;;;14.23;;
9459;SDS011;4768;42.664;23.240;2023-03-15T05:30:44;22.73;;;14.27;;
9459;SDS011;4768;42.664;23.240;2023-03-15T05:33:11;23.10;;;15.17;;
9459;SDS011;4768;42.664;23.240;2023-03-15T05:35:38;27.30;;;16.50;;
9459;SDS011;4768;42.664;23.240;2023-03-15T05:38:06;27.93;;;14.63;;
9459;SDS011;4768;42.664;23.240;2023-03-15T05:40:33;22.63;;;15.03;;
9459;SDS011;4768;42.664;23.240;2023-03-15T05:42:59;22.83;;;15.03;;
9459;SDS011;4768;42.664;23.240;2023-03-15T05:45:26;27.30;;;16.03;;
9459;SDS011;4768;42.664;23.240;2023-03-15T05:47:53;22.43;;;14.90;;
9459;SDS011;4768;42.664;23.240;2023-03-15T05:50:20;29.23;;;15.50;;
9459;SDS011;4768;42.664;23.240;2023-03-15T05:52:48;23.80;;;14.20;;
9459;SDS011;4768;42.664;23.240;2023-03-15T05:55:17;21.20;;;12.97;;
9459;SDS011;4768;42.664;23.240;2023-03-15T05:57:44;21.73;;;13.17;;
9459;SDS011;4768;42.664;23.240;2023-03-15T06:00:11;22.03;;;13.30;;
9459;SDS011;4768;42.664;23.240;2023-03-15T06:02:40;22.17;;;14.50;;
9459;SDS011;4768;42.664;23.240;2023-03-15T06:05:07;31.00;;;16.37;;
9459;SDS011;4768;42.664;23.240;2023-03-15T06:07:34;29.13;;;18.03;;
9459;SDS011;4768;42.664;23.240;2023-03-15T06:10:01;33.30;;;19.27;;
9459;SDS011;4768;42.664;23.240;2023-03-15T06:12:30;31.20;;;17.13;;
9459;SDS011;4768;42.664;23.240;2023-03-15T06:14:57;41.30;;;18.93;;
9459;SDS011;4768;42.664;23.240;2023-03-15T06:17:23;28.93;;;15.80;;
9459;SDS011;4768;42.664;23.240;2023-03-15T06:19:50;28.20;;;17.80;;
9459;SDS011;4768;42.664;23.240;2023-03-15T06:22:17;37.57;;;16.83;;
9459;SDS011;4768;42.664;23.240;2023-03-15T06:24:44;23.80;;;13.20;;
9459;SDS011;4768;42.664;23.240;2023-03-15T06:27:11;22.73;;;12.77;;
9459;SDS011;4768;42.664;23.240;2023-03-15T06:29:39;25.00;;;13.00;;
9459;SDS011;4768;42.664;23.240;2023-03-15T06:32:06;38.73;;;21.63;;
9459;SDS011;4768;42.664;23.240;2023-03-15T06:34:33;32.57;;;19.57;;
9459;SDS011;4768;42.664;23.240;2023-03-15T06:37:00;36.73;;;18.83;;
9459;SDS011;4768;42.664;23.240;2023-03-15T06:39:27;23.50;;;13.43;;
9459;SDS011;4768;42.664;23.240;2023-03-15T06:41:54;21.07;;;12.80;;
9459;SDS011;4768;42.664;23.240;2023-03-15T06:44:22;20.00;;;11.30;;
9459;SDS011;4768;42.664;23.240;2023-03-15T06:46:50;15.33;;;9.50;;
9459;SDS011;4768;42.664;23.240;2023-03-15T06:49:17;16.57;;;10.50;;
9459;SDS011;4768;42.664;23.240;2023-03-15T06:51:43;14.37;;;8.30;;
9459;SDS011;4768;42.664;23.240;2023-03-15T06:54:10;18.00;;;9.47;;
9459;SDS011;4768;42.664;23.240;2023-03-15T06:56:37;17.50;;;9.67;;
9459;SDS011;4768;42.664;23.240;2023-03-15T06:59:04;17.27;;;10.03;;
9459;SDS011;4768;42.664;23.240;2023-03-15T07:01:31;18.77;;;9.23;;
9459;SDS011;4768;42.664;23.240;2023-03-15T07:03:59;13.23;;;8.67;;
9459;SDS011;4768;42.664;23.240;2023-03-15T07:06:26;10.17;;;6.90;;
9459;SDS011;4768;42.664;23.240;2023-03-15T07:08:53;16.03;;;8.20;;
9459;SDS011;4768;42.664;23.240;2023-03-15T07:11:20;11.47;;;6.80;;
9459;SDS011;4768;42.664;23.240;2023-03-15T07:13:46;11.70;;;8.07;;
9459;SDS011;4768;42.664;23.240;2023-03-15T07:16:13;13.97;;;8.40;;
9459;SDS011;4768;42.664;23.240;2023-03-15T07:18:40;17.20;;;8.37;;
9459;SDS011;4768;42.664;23.240;2023-03-15T07:21:08;17.47;;;8.37;;
9459;SDS011;4768;42.664;23.240;2023-03-15T07:23:35;13.80;;;8.20;;
9459;SDS011;4768;42.664;23.240;2023-03-15T07:26:01;14.53;;;8.57;;
9459;SDS011;4768;42.664;23.240;2023-03-15T07:28:28;18.60;;;8.87;;
9459;SDS011;4768;42.664;23.240;2023-03-15T07:30:56;10.50;;;6.93;;
9459;SDS011;4768;42.664;23.240;2023-03-15T07:33:24;13.70;;;6.83;;
9459;SDS011;4768;42.664;23.240;2023-03-15T07:35:52;15.13;;;9.63;;
9459;SDS011;4768;42.664;23.240;2023-03-15T07:38:20;13.13;;;7.03;;
9459;SDS011;4768;42.664;23.240;2023-03-15T07:40:48;12.87;;;6.50;;
9459;SDS011;4768;42.664;23.240;2023-03-15T07:43:14;8.97;;;5.50;;
9459;SDS011;4768;42.664;23.240;2023-03-15T07:45:42;15.67;;;6.60;;
9459;SDS011;4768;42.664;23.240;2023-03-15T07:48:08;10.90;;;6.30;;
9459;SDS011;4768;42.664;23.240;2023-03-15T07:50:35;13.10;;;6.87;;
9459;SDS011;4768;42.664;23.240;2023-03-15T07:53:02;12.37;;;6.87;;
9459;SDS011;4768;42.664;23.240;2023-03-15T07:55:31;10.10;;;5.70;;
9459;SDS011;4768;42.664;23.240;2023-03-15T07:57:58;12.97;;;6.43;;
9459;SDS011;4768;42.664;23.240;2023-03-15T08:00:25;8.63;;;6.47;;
9459;SDS011;4768;42.664;23.240;2023-03-15T08:02:52;12.37;;;7.50;;
9459;SDS011;4768;42.664;23.240;2023-03-15T08:05:19;14.60;;;7.63;;
9459;SDS011;4768;42.664;23.240;2023-03-15T08:07:46;17.67;;;9.80;;
9459;SDS011;4768;42.664;23.240;2023-03-15T08:10:14;14.37;;;8.50;;
9459;SDS011;4768;42.664;23.240;2023-03-15T08:12:43;15.03;;;8.07;;
9459;SDS011;4768;42.664;23.240;2023-03-15T08:15:10;17.77;;;7.83;;
9459;SDS011;4768;42.664;23.240;2023-03-15T08:17:37;14.07;;;8.43;;
9459;SDS011;4768;42.664;23.240;2023-03-15T08:20:05;19.00;;;7.73;;
9459;SDS011;4768;42.664;23.240;2023-03-15T08:22:35;11.37;;;7.50;;
9459;SDS011;4768;42.664;23.240;2023-03-15T08:25:02;10.77;;;6.87;;
9459;SDS011;4768;42.664;23.240;2023-03-15T08:27:30;16.03;;;7.40;;
9459;SDS011;4768;42.664;23.240;2023-03-15T08:29:58;18.10;;;8.00;;
9459;SDS011;4768;42.664;23.240;2023-03-15T08:32:24;11.10;;;7.20;;
9459;SDS011;4768;42.664;23.240;2023-03-15T08:34:51;14.97;;;8.97;;
9459;SDS011;4768;42.664;23.240;2023-03-15T08:37:18;11.93;;;7.87;;
9459;SDS011;4768;42.664;23.240;2023-03-15T08:39:45;13.57;;;7.33;;
9459;SDS011;4768;42.664;23.240;2023-03-15T08:42:11;11.57;;;7.50;;
9459;SDS011;4768;42.664;23.240;2023-03-15T08:44:38;16.87;;;7.20;;
9459;SDS011;4768;42.664;23.240;2023-03-15T08:47:07;10.67;;;6.73;;
9459;SDS011;4768;42.664;23.240;2023-03-15T08:49:34;10.20;;;6.83;;
9459;SDS011;4768;42.664;23.240;2023-03-15T08:52:01;11.57;;;6.53;;
9459;SDS011;4768;42.664;23.240;2023-03-15T08:54:27;12.07;;;6.57;;
9459;SDS011;4768;42.664;23.240;2023-03-15T08:56:55;6.67;;;4.97;;
9459;SDS011;4768;42.664;23.240;2023-03-15T08:59:22;12.40;;;6.33;;
9459;SDS011;4768;42.664;23.240;2023-03-15T09:01:49;11.33;;;7.30;;
9459;SDS011;4768;42.664;23.240;2023-03-15T09:04:17;19.30;;;10.17;;
9459;SDS011;4768;42.664;23.240;2023-03-15T09:06:44;17.53;;;6.93;;
9459;SDS011;4768;42.664;23.240;2023-03-15T09:09:10;11.23;;;7.37;;
9459;SDS011;4768;42.664;23.240;2023-03-15T09:11:41;14.97;;;7.10;;
9459;SDS011;4768;42.664;23.240;2023-03-15T09:14:08;16.10;;;6.53;;
9459;SDS011;4768;42.664;23.240;2023-03-15T09:16:36;18.17;;;9.80;;
9459;SDS011;4768;42.664;23.240;2023-03-15T09:19:02;14.97;;;8.40;;
9459;SDS011;4768;42.664;23.240;2023-03-15T09:21:30;15.07;;;7.23;;
9459;SDS011;4768;42.664;23.240;2023-03-15T09:23:57;11.27;;;6.70;;
9459;SDS011;4768;42.664;23.240;2023-03-15T09:26:24;11.43;;;6.97;;
9459;SDS011;4768;42.664;23.240;2023-03-15T09:28:51;9.57;;;5.90;;
9459;SDS011;4768;42.664;23.240;2023-03-15T09:31:17;11.40;;;6.93;;
9459;SDS011;4768;42.664;23.240;2023-03-15T09:33:44;18.30;;;10.00;;
9459;SDS011;4768;42.664;23.240;2023-03-15T09:36:11;11.87;;;6.70;;
9459;SDS011;4768;42.664;23.240;2023-03-15T09:38:41;11.20;;;5.90;;
9459;SDS011;4768;42.664;23.240;2023-03-15T09:41:10;11.10;;;6.77;;
9459;SDS011;4768;42.664;23.240;2023-03-15T09:43:55;11.37;;;5.50;;
9459;SDS011;4768;42.664;23.240;2023-03-15T09:46:32;13.57;;;6.40;;
9459;SDS011;4768;42.664;23.240;2023-03-15T09:49:04;7.63;;;5.57;;
9459;SDS011;4768;42.664;23.240;2023-03-15T09:51:38;14.00;;;7.93;;
9459;SDS011;4768;42.664;23.240;2023-03-15T09:54:13;9.20;;;5.60;;
9459;SDS011;4768;42.664;23.240;2023-03-15T09:56:45;10.73;;;6.10;;
9459;SDS011;4768;42.664;23.240;2023-03-15T09:59:18;15.87;;;6.20;;
9459;SDS011;4768;42.664;23.240;2023-03-15T10:01:48;12.13;;;6.60;;
9459;SDS011;4768;42.664;23.240;2023-03-15T10:04:21;11.33;;;6.20;;
9459;SDS011;4768;42.664;23.240;2023-03-15T10:06:53;12.53;;;6.37;;
9459;SDS011;4768;42.664;23.240;2023-03-15T10:09:24;10.97;;;5.83;;
9459;SDS011;4768;42.664;23.240;2023-03-15T10:11:58;15.10;;;6.67;;
9459;SDS011;4768;42.664;23.240;2023-03-15T10:14:31;11.17;;;5.40;;
9459;SDS011;4768;42.664;23.240;2023-03-15T10:17:17;11.90;;;5.93;;
9459;SDS011;4768;42.664;23.240;2023-03-15T10:19:50;8.23;;;5.73;;
9459;SDS011;4768;42.664;23.240;2023-03-15T10:22:21;17.77;;;9.63;;
9459;SDS011;4768;42.664;23.240;2023-03-15T10:24:55;7.30;;;5.27;;
9459;SDS011;4768;42.664;23.240;2023-03-15T10:27:27;15.97;;;5.10;;
9459;SDS011;4768;42.664;23.240;2023-03-15T10:30:00;9.63;;;6.43;;
9459;SDS011;4768;42.664;23.240;2023-03-15T10:32:29;8.17;;;5.53;;
9459;SDS011;4768;42.664;23.240;2023-03-15T10:35:05;10.53;;;6.43;;
9459;SDS011;4768;42.664;23.240;2023-03-15T10:37:38;9.20;;;5.50;;
9459;SDS011;4768;42.664;23.240;2023-03-15T10:40:09;11.17;;;5.80;;
9459;SDS011;4768;42.664;23.240;2023-03-15T10:42:40;8.43;;;5.67;;
9459;SDS011;4768;42.664;23.240;2023-03-15T10:45:12;10.93;;;5.60;;
9459;SDS011;4768;42.664;23.240;2023-03-15T10:47:45;10.13;;;5.83;;
9459;SDS011;4768;42.664;23.240;2023-03-15T10:50:16;9.33;;;5.93;;
9459;SDS011;4768;42.664;23.240;2023-03-15T10:52:53;10.33;;;5.97;;
9459;SDS011;4768;42.664;23.240;2023-03-15T10:55:27;10.53;;;5.57;;
9459;SDS011;4768;42.664;23.240;2023-03-15T10:57:57;14.37;;;6.17;;
9459;SDS011;4768;42.664;23.240;2023-03-15T11:00:36;12.43;;;5.63;;
9459;SDS011;4768;42.664;23.240;2023-03-15T11:03:04;16.33;;;6.03;;
9459;SDS011;4768;42.664;23.240;2023-03-15T11:05:37;10.77;;;6.03;;
9459;SDS011;4768;42.664;23.240;2023-03-15T11:08:09;14.63;;;7.10;;
9459;SDS011;4768;42.664;23.240;2023-03-15T11:10:39;12.47;;;6.43;;
9459;SDS011;4768;42.664;23.240;2023-03-15T11:13:10;7.27;;;3.67;;
9459;SDS011;4768;42.664;23.240;2023-03-15T11:15:39;7.60;;;3.93;;
9459;SDS011;4768;42.664;23.240;2023-03-15T11:18:16;9.37;;;4.97;;
9459;SDS011;4768;42.664;23.240;2023-03-15T11:20:44;5.67;;;4.00;;
9459;SDS011;4768;42.664;23.240;2023-03-15T11:23:13;10.43;;;4.20;;
9459;SDS011;4768;42.664;23.240;2023-03-15T11:25:42;9.63;;;4.67;;
9459;SDS011;4768;42.664;23.240;2023-03-15T11:28:11;5.83;;;4.00;;
9459;SDS011;4768;42.664;23.240;2023-03-15T11:30:43;9.27;;;3.80;;
9459;SDS011;4768;42.664;23.240;2023-03-15T11:33:13;6.87;;;3.60;;
9459;SDS011;4768;42.664;23.240;2023-03-15T11:35:52;7.40;;;4.40;;
9459;SDS011;4768;42.664;23.240;2023-03-15T11:38:23;5.80;;;3.93;;
9459;SDS011;4768;42.664;23.240;2023-03-15T11:40:58;4.60;;;2.80;;
9459;SDS011;4768;42.664;23.240;2023-03-15T11:43:28;4.80;;;3.17;;
9459;SDS011;4768;42.664;23.240;2023-03-15T11:46:04;5.20;;;3.40;;
9459;SDS011;4768;42.664;23.240;2023-03-15T11:48:36;7.60;;;3.73;;
9459;SDS011;4768;42.664;23.240;2023-03-15T11:51:08;5.03;;;3.60;;
9459;SDS011;4768;42.664;23.240;2023-03-15T11:53:39;6.13;;;3.40;;
9459;SDS011;4768;42.664;23.240;2023-03-15T11:56:20;4.60;;;3.00;;
9459;SDS011;4768;42.664;23.240;2023-03-15T11:59:00;7.00;;;3.30;;
9459;SDS011;4768;42.664;23.240;2023-03-15T12:01:32;7.37;;;6.60;;
9459;SDS011;4768;42.664;23.240;2023-03-15T12:07:10;9.00;;;5.73;;
9459;SDS011;4768;42.664;23.240;2023-03-15T12:09:53;11.70;;;5.87;;
9459;SDS011;4768;42.664;23.240;2023-03-15T12:12:35;10.37;;;5.97;;
9459;SDS011;4768;42.664;23.240;2023-03-15T12:15:04;14.17;;;6.10;;
9459;SDS011;4768;42.664;23.240;2023-03-15T12:17:43;16.23;;;10.40;;
9459;SDS011;4768;42.664;23.240;2023-03-15T12:20:16;7.07;;;3.00;;
9459;SDS011;4768;42.664;23.240;2023-03-15T12:22:48;3.83;;;2.63;;
9459;SDS011;4768;42.664;23.240;2023-03-15T12:25:18;3.77;;;2.20;;
9459;SDS011;4768;42.664;23.240;2023-03-15T12:27:50;7.40;;;2.57;;
9459;SDS011;4768;42.664;23.240;2023-03-15T12:30:20;2.57;;;2.07;;
9459;SDS011;4768;42.664;23.240;2023-03-15T12:32:51;4.30;;;2.50;;
9459;SDS011;4768;42.664;23.240;2023-03-15T12:35:20;5.10;;;2.50;;
9459;SDS011;4768;42.664;23.240;2023-03-15T12:37:49;3.40;;;2.23;;
9459;SDS011;4768;42.664;23.240;2023-03-15T12:40:36;2.37;;;2.17;;
9459;SDS011;4768;42.664;23.240;2023-03-15T12:43:07;3.07;;;2.50;;
9459;SDS011;4768;42.664;23.240;2023-03-15T12:45:41;3.43;;;2.27;;
9459;SDS011;4768;42.664;23.240;2023-03-15T12:48:20;4.20;;;2.40;;
9459;SDS011;4768;42.664;23.240;2023-03-15T12:53:48;2.70;;;2.33;;
9459;SDS011;4768;42.664;23.240;2023-03-15T12:59:06;2.10;;;1.90;;
9459;SDS011;4768;42.664;23.240;2023-03-15T13:01:41;2.70;;;1.70;;
9459;SDS011;4768;42.664;23.240;2023-03-15T13:04:08;3.90;;;2.33;;
9459;SDS011;4768;42.664;23.240;2023-03-15T13:06:42;6.23;;;2.10;;
9459;SDS011;4768;42.664;23.240;2023-03-15T13:09:20;3.13;;;2.13;;
9459;SDS011;4768;42.664;23.240;2023-03-15T13:12:02;3.30;;;2.23;;
9459;SDS011;4768;42.664;23.240;2023-03-15T13:14:37;3.10;;;2.13;;
9459;SDS011;4768;42.664;23.240;2023-03-15T13:17:12;5.43;;;2.10;;
9459;SDS011;4768;42.664;23.240;2023-03-15T13:19:50;4.20;;;2.33;;
9459;SDS011;4768;42.664;23.240;2023-03-15T13:22:33;7.83;;;2.37;;
9459;SDS011;4768;42.664;23.240;2023-03-15T13:25:11;4.30;;;2.20;;
9459;SDS011;4768;42.664;23.240;2023-03-15T13:27:45;3.03;;;1.93;;
9459;SDS011;4768;42.664;23.240;2023-03-15T13:30:31;4.60;;;2.30;;
9459;SDS011;4768;42.664;23.240;2023-03-15T13:33:10;4.53;;;2.40;;
9459;SDS011;4768;42.664;23.240;2023-03-15T13:35:44;3.43;;;2.40;;
9459;SDS011;4768;42.664;23.240;2023-03-15T13:38:20;4.37;;;2.17;;
9459;SDS011;4768;42.664;23.240;2023-03-15T13:40:50;3.00;;;2.00;;
9459;SDS011;4768;42.664;23.240;2023-03-15T13:43:16;3.90;;;2.20;;
9459;SDS011;4768;42.664;23.240;2023-03-15T13:45:45;5.23;;;2.20;;
9459;SDS011;4768;42.664;23.240;2023-03-15T13:48:12;6.40;;;2.70;;
9459;SDS011;4768;42.664;23.240;2023-03-15T13:50:38;5.30;;;2.33;;
9459;SDS011;4768;42.664;23.240;2023-03-15T13:53:06;5.23;;;2.33;;
9459;SDS011;4768;42.664;23.240;2023-03-15T13:55:33;6.63;;;2.60;;
9459;SDS011;4768;42.664;23.240;2023-03-15T13:58:04;5.10;;;2.73;;
9459;SDS011;4768;42.664;23.240;2023-03-15T14:00:33;7.17;;;3.00;;
9459;SDS011;4768;42.664;23.240;2023-03-15T14:03:03;6.93;;;2.30;;
9459;SDS011;4768;42.664;23.240;2023-03-15T14:05:33;8.87;;;4.90;;
9459;SDS011;4768;42.664;23.240;2023-03-15T14:08:14;6.30;;;2.93;;
9459;SDS011;4768;42.664;23.240;2023-03-15T14:10:56;4.73;;;2.77;;
9459;SDS011;4768;42.664;23.240;2023-03-15T14:13:27;5.90;;;3.10;;
9459;SDS011;4768;42.664;23.240;2023-03-15T14:15:56;5.10;;;2.40;;
9459;SDS011;4768;42.664;23.240;2023-03-15T14:18:28;6.87;;;3.90;;
9459;SDS011;4768;42.664;23.240;2023-03-15T14:20:57;12.93;;;5.60;;
9459;SDS011;4768;42.664;23.240;2023-03-15T14:23:26;11.20;;;7.43;;
9459;SDS011;4768;42.664;23.240;2023-03-15T14:25:55;5.93;;;3.70;;
9459;SDS011;4768;42.664;23.240;2023-03-15T14:28:29;5.33;;;3.33;;
9459;SDS011;4768;42.664;23.240;2023-03-15T14:30:57;8.20;;;3.40;;
9459;SDS011;4768;42.664;23.240;2023-03-15T14:33:29;5.17;;;3.80;;
9459;SDS011;4768;42.664;23.240;2023-03-15T14:35:59;7.77;;;3.20;;
9459;SDS011;4768;42.664;23.240;2023-03-15T14:38:32;3.10;;;2.37;;
9459;SDS011;4768;42.664;23.240;2023-03-15T14:41:10;71.53;;;29.23;;
9459;SDS011;4768;42.664;23.240;2023-03-15T14:43:44;5.83;;;3.23;;
9459;SDS011;4768;42.664;23.240;2023-03-15T14:46:11;7.13;;;3.90;;
9459;SDS011;4768;42.664;23.240;2023-03-15T14:48:39;6.27;;;3.90;;
9459;SDS011;4768;42.664;23.240;2023-03-15T14:51:07;7.63;;;3.50;;
9459;SDS011;4768;42.664;23.240;2023-03-15T14:53:40;4.73;;;2.80;;
9459;SDS011;4768;42.664;23.240;2023-03-15T14:56:09;5.60;;;2.83;;
9459;SDS011;4768;42.664;23.240;2023-03-15T14:58:37;4.97;;;3.47;;
9459;SDS011;4768;42.664;23.240;2023-03-15T15:01:03;4.47;;;3.60;;
9459;SDS011;4768;42.664;23.240;2023-03-15T15:03:31;5.60;;;4.23;;
9459;SDS011;4768;42.664;23.240;2023-03-15T15:06:03;7.40;;;3.47;;
9459;SDS011;4768;42.664;23.240;2023-03-15T15:08:32;4.57;;;2.80;;
9459;SDS011;4768;42.664;23.240;2023-03-15T15:11:02;7.30;;;4.03;;
9459;SDS011;4768;42.664;23.240;2023-03-15T15:13:29;6.83;;;3.57;;